Time;durP1;ratioP1;P1;durP2;ratioP2;P2;SDS_P1;SDS_P2;PMS_P1;PMS_P2;Temp;Humidity;BMP_temperature;BMP_pressure;BME280_temperature;BME280_humidity;BME280_pressure;Samples;Min_cycle;Max_cycle;Signal;HPM_P1;HPM_P2
2021/10/30 00:01:39;;;;;;;10.73;6.10;;;;;;;1.88;79.53;96377.70;1776977;81;21101;-67
2021/10/30 00:04:05;;;;;;;9.00;6.57;;;;;;;1.87;79.80;96385.94;1765248;80;21067;-68
2021/10/30 00:06:32;;;;;;;11.47;6.70;;;;;;;1.95;79.98;96383.55;1763955;80;21025;-68
2021/10/30 00:08:58;;;;;;;9.80;5.97;;;;;;;2.02;80.12;96380.70;1766614;79;21543;-68
2021/10/30 00:11:25;;;;;;;10.13;6.30;;;;;;;2.08;80.33;96377.82;1772843;80;21013;-68
2021/10/30 00:13:52;;;;;;;11.23;6.10;;;;;;;2.13;80.36;96381.86;1748863;80;21627;-68
2021/10/30 00:16:19;;;;;;;10.40;6.00;;;;;;;2.13;80.36;96380.13;1774236;81;21555;-68
2021/10/30 00:18:46;;;;;;;10.27;5.93;;;;;;;2.21;80.64;96385.95;1766419;81;21526;-68
2021/10/30 00:21:13;;;;;;;11.43;6.40;;;;;;;2.25;80.30;96388.69;1765526;80;20982;-68
2021/10/30 00:23:40;;;;;;;9.27;5.73;;;;;;;2.34;80.30;96384.12;1773030;80;21023;-68
2021/10/30 00:26:07;;;;;;;9.13;5.73;;;;;;;2.31;79.88;96380.15;1765305;80;21112;-68
2021/10/30 00:28:34;;;;;;;9.53;6.00;;;;;;;2.36;79.94;96378.12;1764051;80;21021;-68
2021/10/30 00:31:01;;;;;;;9.53;5.73;;;;;;;2.24;79.91;96386.03;1765356;80;21009;-68
2021/10/30 00:33:27;;;;;;;11.67;6.30;;;;;;;2.13;79.92;96384.45;1764045;81;20978;-68
2021/10/30 00:35:54;;;;;;;11.33;5.37;;;;;;;2.07;80.21;96378.67;1767814;80;21025;-68
2021/10/30 00:38:21;;;;;;;9.00;5.83;;;;;;;2.01;80.31;96387.60;1768394;81;21023;-67
2021/10/30 00:40:47;;;;;;;10.23;5.93;;;;;;;1.93;79.80;96392.59;1775680;80;21130;-67
2021/10/30 00:43:14;;;;;;;9.47;5.00;;;;;;;1.94;80.07;96388.27;1765936;80;21550;-68
2021/10/30 00:45:40;;;;;;;6.97;4.50;;;;;;;1.94;80.03;96391.78;1768138;79;21014;-67
2021/10/30 00:48:07;;;;;;;8.40;4.40;;;;;;;1.88;79.99;96388.12;1743582;81;21027;-68
2021/10/30 00:50:33;;;;;;;10.93;5.40;;;;;;;1.80;80.02;96392.23;1769955;81;20991;-68
2021/10/30 00:53:01;;;;;;;6.93;4.10;;;;;;;1.77;80.20;96381.75;1776463;81;21057;-67
2021/10/30 00:55:30;;;;;;;9.73;5.27;;;;;;;1.80;80.86;96384.00;1774348;81;21042;-69
2021/10/30 00:57:59;;;;;;;8.57;5.43;;;;;;;1.75;81.10;96385.59;1767929;80;21033;-68
2021/10/30 01:00:26;;;;;;;9.47;5.70;;;;;;;1.77;81.18;96381.75;1767878;80;21035;-68
2021/10/30 01:02:53;;;;;;;11.00;5.93;;;;;;;1.83;81.33;96379.30;1771150;81;20979;-69
2021/10/30 01:05:19;;;;;;;8.53;5.40;;;;;;;1.76;81.02;96372.16;1770174;80;20994;-69
2021/10/30 01:07:47;;;;;;;7.23;5.20;;;;;;;1.83;81.44;96374.09;1769175;80;21011;-68
2021/10/30 01:10:15;;;;;;;10.73;5.60;;;;;;;1.82;81.31;96364.55;1746422;80;21050;-68
2021/10/30 01:12:44;;;;;;;8.03;5.10;;;;;;;1.79;81.29;96373.53;1775340;80;21023;-68
2021/10/30 01:15:10;;;;;;;11.47;5.40;;;;;;;1.85;81.15;96370.70;1774620;80;21078;-68
2021/10/30 01:17:37;;;;;;;9.50;6.17;;;;;;;1.94;81.19;96368.75;1778153;80;21023;-68
2021/10/30 01:20:05;;;;;;;8.87;5.10;;;;;;;1.99;80.72;96369.79;1769064;80;21006;-67
2021/10/30 01:22:35;;;;;;;10.27;6.20;;;;;;;2.04;80.85;96362.98;1769372;80;21025;-67
2021/10/30 01:25:03;;;;;;;12.47;6.07;;;;;;;1.99;80.57;96370.19;1769684;80;21019;-68
2021/10/30 01:27:30;;;;;;;8.80;5.07;;;;;;;1.87;79.81;96365.55;1765710;80;21010;-68
2021/10/30 01:29:57;;;;;;;9.47;5.13;;;;;;;1.84;80.02;96370.64;1770814;80;21010;-68
2021/10/30 01:32:23;;;;;;;11.10;5.33;;;;;;;1.74;79.82;96374.73;1765436;80;21089;-67
2021/10/30 01:34:50;;;;;;;8.73;5.00;;;;;;;1.72;80.59;96377.28;1764191;80;21005;-68
2021/10/30 01:37:17;;;;;;;7.87;4.87;;;;;;;1.85;80.88;96377.62;1766526;80;21487;-68
2021/10/30 01:39:44;;;;;;;9.67;5.53;;;;;;;1.89;80.55;96378.16;1765644;80;21498;-68
2021/10/30 01:42:11;;;;;;;8.23;4.93;;;;;;;1.91;80.53;96376.48;1771856;80;21013;-67
2021/10/30 01:44:37;;;;;;;9.00;5.27;;;;;;;1.97;80.57;96377.09;1774680;80;21034;-67
2021/10/30 01:47:05;;;;;;;6.57;4.60;;;;;;;1.88;79.78;96378.58;1772379;80;21350;-68
2021/10/30 01:49:31;;;;;;;9.70;5.07;;;;;;;1.73;79.90;96373.83;1778823;81;21054;-68
2021/10/30 01:51:58;;;;;;;7.97;4.80;;;;;;;1.76;80.08;96381.27;1775821;81;21023;-68
2021/10/30 01:54:25;;;;;;;8.23;5.10;;;;;;;1.81;80.72;96380.97;1768457;81;21576;-68
2021/10/30 01:56:53;;;;;;;7.00;4.43;;;;;;;1.73;80.45;96382.94;1775356;81;21533;-68
2021/10/30 01:59:20;;;;;;;6.93;4.90;;;;;;;1.76;80.74;96384.74;1775456;80;21007;-68
2021/10/30 02:01:47;;;;;;;6.53;3.57;;;;;;;1.77;80.61;96382.63;1773594;80;21515;-68
2021/10/30 02:04:14;;;;;;;7.70;4.83;;;;;;;1.82;80.43;96387.95;1770911;80;20983;-68
2021/10/30 02:06:40;;;;;;;9.87;5.23;;;;;;;1.63;80.81;96383.94;1774407;81;21571;-68
2021/10/30 02:09:07;;;;;;;7.70;4.27;;;;;;;1.58;80.48;96379.03;1774120;80;21023;-67
2021/10/30 02:11:34;;;;;;;8.27;4.87;;;;;;;1.58;80.39;96379.03;1769236;80;20992;-68
2021/10/30 02:14:00;;;;;;;7.17;4.37;;;;;;;1.56;80.81;96380.70;1765237;80;21073;-67
2021/10/30 02:16:27;;;;;;;7.93;4.67;;;;;;;1.48;80.53;96382.66;1769412;80;21042;-68
2021/10/30 02:18:53;;;;;;;10.07;5.20;;;;;;;1.47;80.72;96386.53;1770837;80;21536;-68
2021/10/30 02:21:20;;;;;;;12.00;5.47;;;;;;;1.46;81.46;96377.86;1767814;80;21019;-68
2021/10/30 02:23:47;;;;;;;9.47;4.83;;;;;;;1.47;81.77;96381.33;1778142;81;21345;-67
2021/10/30 02:26:13;;;;;;;7.80;4.77;;;;;;;1.52;81.68;96378.44;1775981;81;21050;-68
2021/10/30 02:28:41;;;;;;;8.77;5.07;;;;;;;1.56;81.50;96382.88;1769149;80;21110;-69
2021/10/30 02:31:07;;;;;;;9.77;4.70;;;;;;;1.57;81.24;96383.36;1773887;80;21512;-69
2021/10/30 02:33:34;;;;;;;7.97;4.90;;;;;;;1.56;80.91;96386.77;1779813;81;21061;-69
2021/10/30 02:36:01;;;;;;;8.83;5.10;;;;;;;1.60;81.32;96382.56;1771088;80;21053;-69
2021/10/30 02:38:28;;;;;;;10.67;6.40;;;;;;;1.57;81.09;96380.75;1773025;80;21022;-68
2021/10/30 02:40:54;;;;;;;13.47;8.20;;;;;;;1.61;81.18;96379.98;1775278;81;21043;-68
2021/10/30 02:43:21;;;;;;;9.97;5.63;;;;;;;1.67;80.54;96384.08;1775880;80;21159;-68
2021/10/30 02:45:48;;;;;;;8.00;5.10;;;;;;;1.69;80.38;96381.53;1764238;80;21081;-68
2021/10/30 02:48:14;;;;;;;12.60;4.43;;;;;;;1.59;80.11;96382.08;1768153;80;20986;-68
2021/10/30 02:50:41;;;;;;;7.83;4.60;;;;;;;1.54;80.22;96378.47;1773970;80;21086;-68
2021/10/30 02:53:08;;;;;;;9.03;5.33;;;;;;;1.47;80.48;96378.73;1764115;80;21041;-67
2021/10/30 02:55:34;;;;;;;9.90;4.97;;;;;;;1.50;80.76;96377.51;1774973;80;21070;-67
2021/10/30 02:58:01;;;;;;;10.47;4.47;;;;;;;1.57;81.01;96383.78;1771459;80;21073;-67
2021/10/30 03:00:28;;;;;;;7.30;4.27;;;;;;;1.55;81.04;96382.42;1774398;80;21026;-68
2021/10/30 03:02:55;;;;;;;8.03;4.87;;;;;;;1.51;80.66;96389.27;1765869;80;21006;-67
2021/10/30 03:05:21;;;;;;;9.70;4.87;;;;;;;1.50;80.40;96388.79;1774039;81;20992;-67
2021/10/30 03:07:48;;;;;;;6.97;4.43;;;;;;;1.47;80.66;96386.11;1777302;81;21117;-67
2021/10/30 03:10:14;;;;;;;7.83;4.87;;;;;;;1.44;80.73;96386.45;1764181;80;21484;-67
2021/10/30 03:12:41;;;;;;;9.13;4.73;;;;;;;1.39;81.01;96391.51;1764133;80;21021;-68
2021/10/30 03:15:09;;;;;;;8.03;4.77;;;;;;;1.34;80.64;96390.48;1777585;80;21036;-68
2021/10/30 03:17:35;;;;;;;10.07;6.20;;;;;;;1.23;80.58;96392.74;1773247;80;21023;-68
2021/10/30 03:20:03;;;;;;;12.10;7.27;;;;;;;1.15;80.45;96392.94;1766546;80;21032;-68
2021/10/30 03:22:29;;;;;;;18.00;9.77;;;;;;;1.03;80.99;96397.75;1764390;80;21463;-68
2021/10/30 03:24:57;;;;;;;12.23;7.17;;;;;;;0.95;80.45;96399.24;1765234;79;21131;-68
2021/10/30 03:27:24;;;;;;;7.60;5.20;;;;;;;1.00;81.26;96404.16;1766556;80;21001;-67
2021/10/30 03:29:52;;;;;;;7.10;4.80;;;;;;;1.05;81.03;96397.39;1772793;81;21587;-67
2021/10/30 03:32:19;;;;;;;9.00;4.63;;;;;;;1.16;81.54;96393.81;1772175;81;21047;-67
2021/10/30 03:34:45;;;;;;;7.70;4.43;;;;;;;1.25;81.69;96398.00;1778378;80;21047;-67
2021/10/30 03:37:12;;;;;;;7.73;4.40;;;;;;;1.14;81.30;96398.98;1773666;80;21072;-68
2021/10/30 03:39:39;;;;;;;7.37;4.23;;;;;;;1.09;81.87;96400.56;1764000;80;21531;-67
2021/10/30 03:42:07;;;;;;;8.97;5.37;;;;;;;0.99;81.51;96394.20;1765418;80;21041;-66
2021/10/30 03:44:35;;;;;;;8.47;4.53;;;;;;;1.12;81.92;96401.08;1765241;80;21009;-68
2021/10/30 03:47:01;;;;;;;8.17;5.27;;;;;;;1.11;81.65;96395.39;1764415;80;21005;-68
2021/10/30 03:49:28;;;;;;;9.87;5.13;;;;;;;1.06;81.85;96391.38;1776793;80;21030;-68
2021/10/30 03:51:54;;;;;;;9.73;5.00;;;;;;;1.15;82.07;96390.77;1776951;81;21015;-68
2021/10/30 03:54:21;;;;;;;6.80;4.87;;;;;;;1.18;81.53;96390.84;1775703;81;21022;-68
2021/10/30 03:56:48;;;;;;;8.17;4.97;;;;;;;1.18;81.49;96395.63;1774360;81;21035;-68
2021/10/30 03:59:15;;;;;;;7.40;4.50;;;;;;;1.26;81.70;96392.86;1778235;81;21019;-68
2021/10/30 04:01:42;;;;;;;6.27;4.27;;;;;;;1.34;81.64;96390.92;1775698;81;21454;-68
2021/10/30 04:04:08;;;;;;;7.30;4.77;;;;;;;1.34;81.09;96388.31;1774366;80;22358;-68
2021/10/30 04:06:35;;;;;;;7.23;4.93;;;;;;;1.26;80.91;96390.27;1765552;80;21041;-68
2021/10/30 04:09:03;;;;;;;6.67;4.27;;;;;;;1.24;81.01;96389.75;1765360;80;21040;-68
2021/10/30 04:11:29;;;;;;;7.03;4.40;;;;;;;1.16;80.77;96401.22;1767921;80;21014;-68
2021/10/30 04:13:57;;;;;;;7.67;4.40;;;;;;;1.14;80.87;96397.69;1775039;80;21513;-68
2021/10/30 04:16:23;;;;;;;9.73;4.93;;;;;;;1.12;80.98;96392.85;1767814;80;21093;-67
2021/10/30 04:18:50;;;;;;;5.53;3.67;;;;;;;1.04;80.65;96396.94;1773322;81;21027;-67
2021/10/30 04:21:17;;;;;;;7.13;4.57;;;;;;;0.97;81.25;96393.69;1776182;81;21094;-68
2021/10/30 04:23:43;;;;;;;7.23;4.50;;;;;;;0.93;81.07;96393.98;1765202;79;21061;-67
2021/10/30 04:26:10;;;;;;;9.07;4.60;;;;;;;0.90;81.09;96393.02;1764885;80;21544;-67
2021/10/30 04:28:37;;;;;;;6.97;4.33;;;;;;;0.96;81.57;96391.90;1771315;81;21587;-68
2021/10/30 04:31:08;;;;;;;7.40;4.40;;;;;;;0.98;81.53;96390.23;1772269;81;21029;-67
2021/10/30 04:33:36;;;;;;;6.10;3.53;;;;;;;0.98;81.47;96386.34;1767712;80;21040;-68
2021/10/30 04:36:14;;;;;;;7.93;4.43;;;;;;;0.88;81.07;96386.47;1766439;80;21077;-68
2021/10/30 04:38:32;;;;;;;8.83;4.33;;;;;;;0.92;81.73;96384.44;1769071;80;21019;-66
2021/10/30 04:40:59;;;;;;;8.43;4.70;;;;;;;1.01;82.07;96379.97;1767467;80;21017;-68
2021/10/30 04:43:25;;;;;;;7.83;4.43;;;;;;;1.07;81.85;96380.14;1772435;81;20989;-68
2021/10/30 04:45:52;;;;;;;8.77;5.00;;;;;;;1.03;81.49;96386.06;1776291;81;20999;-68
2021/10/30 04:48:19;;;;;;;10.83;5.80;;;;;;;1.07;81.89;96386.63;1769799;80;21066;-68
2021/10/30 04:50:45;;;;;;;11.63;6.43;;;;;;;1.15;81.96;96381.67;1773225;80;21073;-68
2021/10/30 04:53:12;;;;;;;11.87;6.33;;;;;;;1.21;81.91;96381.84;1768140;80;21015;-68
2021/10/30 04:55:39;;;;;;;7.97;4.60;;;;;;;1.25;81.27;96386.30;1771201;80;21146;-68
2021/10/30 04:58:06;;;;;;;9.93;4.93;;;;;;;1.20;80.94;96387.89;1770973;80;20994;-66
2021/10/30 05:00:33;;;;;;;10.37;4.77;;;;;;;1.05;80.60;96394.37;1766495;80;21024;-68
2021/10/30 05:02:59;;;;;;;7.07;3.70;;;;;;;0.97;81.11;96390.66;1769185;80;21062;-67
2021/10/30 05:05:26;;;;;;;7.63;4.03;;;;;;;0.85;81.02;96395.05;1773530;80;21078;-68
2021/10/30 05:07:52;;;;;;;7.83;4.73;;;;;;;0.80;81.53;96400.94;1765915;80;21511;-68
2021/10/30 05:10:19;;;;;;;8.97;4.43;;;;;;;0.84;81.36;96393.72;1764445;79;21120;-68
2021/10/30 05:12:45;;;;;;;7.83;4.60;;;;;;;0.93;81.65;96387.91;1766142;80;21475;-68
2021/10/30 05:15:12;;;;;;;6.57;4.37;;;;;;;0.97;81.23;96396.28;1764144;80;20994;-68
2021/10/30 05:17:39;;;;;;;7.17;4.73;;;;;;;1.00;81.36;96395.07;1764193;80;21014;-68
2021/10/30 05:20:07;;;;;;;7.10;4.63;;;;;;;1.07;81.50;96391.83;1766589;80;21059;-68
2021/10/30 05:22:33;;;;;;;8.43;4.57;;;;;;;1.10;81.21;96396.23;1767648;80;21022;-68
2021/10/30 05:25:00;;;;;;;8.60;4.43;;;;;;;1.07;81.17;96390.53;1771817;80;21070;-68
2021/10/30 05:27:27;;;;;;;5.67;4.23;;;;;;;0.97;81.07;96398.45;1767004;80;21041;-68
2021/10/30 05:29:54;;;;;;;8.50;4.53;;;;;;;1.02;81.28;96394.70;1769199;80;21583;-68
2021/10/30 05:32:20;;;;;;;10.40;5.50;;;;;;;0.99;81.23;96390.72;1771542;80;21009;-68
2021/10/30 05:34:49;;;;;;;13.73;8.57;;;;;;;1.00;81.68;96397.67;1770686;80;21066;-68
2021/10/30 05:37:17;;;;;;;13.27;7.20;;;;;;;0.88;81.01;96394.26;1768911;80;20974;-68
2021/10/30 05:39:46;;;;;;;12.27;7.17;;;;;;;0.91;81.37;96395.68;1773352;80;21026;-68
2021/10/30 05:42:13;;;;;;;12.57;7.17;;;;;;;0.99;81.42;96398.09;1769919;79;21017;-68
2021/10/30 05:44:40;;;;;;;10.77;6.30;;;;;;;1.06;81.46;96392.68;1770838;80;21018;-68
2021/10/30 05:47:09;;;;;;;12.17;8.37;;;;;;;1.10;81.28;96391.92;1774348;80;21595;-67
2021/10/30 05:49:38;;;;;;;12.03;7.57;;;;;;;1.11;81.53;96393.70;1748615;80;21041;-67
2021/10/30 05:52:07;;;;;;;6.90;4.47;;;;;;;1.15;81.86;96387.74;1775244;80;20987;-67
2021/10/30 05:54:34;;;;;;;7.57;5.37;;;;;;;1.11;81.60;96391.10;1750735;81;21488;-67
2021/10/30 05:57:01;;;;;;;7.67;3.87;;;;;;;1.05;81.85;96395.67;1777262;81;21011;-67
2021/10/30 05:59:28;;;;;;;4.73;3.37;;;;;;;1.08;81.91;96399.69;1768047;80;21591;-68
2021/10/30 06:01:54;;;;;;;7.73;4.60;;;;;;;1.07;81.61;96395.73;1774503;81;20987;-68
2021/10/30 06:04:21;;;;;;;10.13;4.97;;;;;;;1.00;82.18;96395.07;1764170;80;21033;-67
2021/10/30 06:06:48;;;;;;;11.83;5.47;;;;;;;1.03;82.92;96401.66;1764186;80;21044;-68
2021/10/30 06:09:15;;;;;;;7.90;5.00;;;;;;;1.13;83.60;96398.50;1771947;80;21528;-68
2021/10/30 06:11:42;;;;;;;8.90;5.63;;;;;;;1.22;83.70;96396.20;1768963;80;21049;-68
2021/10/30 06:14:10;;;;;;;10.27;5.43;;;;;;;1.34;83.51;96398.72;1772010;80;21073;-68
2021/10/30 06:16:37;;;;;;;9.90;5.67;;;;;;;1.49;83.68;96400.47;1774109;81;20982;-68
2021/10/30 06:19:05;;;;;;;11.03;6.13;;;;;;;1.56;83.28;96390.67;1764093;80;21033;-68
2021/10/30 06:21:31;;;;;;;10.10;5.10;;;;;;;1.58;83.05;96390.73;1774953;80;21031;-68
2021/10/30 06:23:59;;;;;;;8.57;5.53;;;;;;;1.66;83.39;96384.93;1777765;81;21034;-68
2021/10/30 06:26:27;;;;;;;8.17;4.53;;;;;;;1.72;82.88;96390.30;1775665;81;21055;-68
2021/10/30 06:28:54;;;;;;;10.27;6.20;;;;;;;1.78;82.81;96396.08;1769663;81;21024;-68
2021/10/30 06:31:22;;;;;;;8.83;5.50;;;;;;;1.84;82.71;96391.45;1766827;80;21081;-67
2021/10/30 06:33:49;;;;;;;11.33;6.73;;;;;;;1.90;82.54;96392.52;1772934;80;21075;-67
2021/10/30 06:36:16;;;;;;;12.07;6.40;;;;;;;2.04;83.10;96399.42;1772042;80;21606;-67
2021/10/30 06:38:43;;;;;;;9.33;4.57;;;;;;;2.18;82.97;96391.09;1764186;80;21025;-67
2021/10/30 06:41:12;;;;;;;10.57;6.87;;;;;;;2.25;82.63;96388.69;1765153;80;21065;-67
2021/10/30 06:43:40;;;;;;;12.13;6.70;;;;;;;2.31;82.54;96387.96;1764619;80;21113;-68
2021/10/30 06:46:07;;;;;;;8.13;5.20;;;;;;;2.43;82.82;96392.61;1764519;80;21013;-68
2021/10/30 06:48:36;;;;;;;13.70;7.70;;;;;;;2.56;82.87;96377.32;1761985;80;21050;-67
2021/10/30 06:51:04;;;;;;;9.53;5.87;;;;;;;2.68;82.82;96383.27;1766279;80;21017;-67
2021/10/30 06:53:33;;;;;;;9.97;5.63;;;;;;;2.84;82.60;96383.63;1770486;80;21011;-68
2021/10/30 06:56:00;;;;;;;11.27;6.30;;;;;;;2.88;82.12;96385.05;1772593;79;21585;-68
2021/10/30 06:58:28;;;;;;;10.60;6.40;;;;;;;2.95;82.32;96388.27;1775668;81;22092;-68
2021/10/30 07:00:57;;;;;;;12.50;8.07;;;;;;;3.04;82.12;96384.98;1778300;81;21003;-67
2021/10/30 07:03:25;;;;;;;10.93;7.83;;;;;;;3.16;82.10;96378.74;1770258;80;21556;-68
2021/10/30 07:05:51;;;;;;;10.77;7.10;;;;;;;3.32;81.92;96381.69;1775155;80;21066;-68
2021/10/30 07:08:18;;;;;;;14.07;8.70;;;;;;;3.43;81.69;96384.12;1777709;81;20999;-68
2021/10/30 07:10:45;;;;;;;13.00;7.60;;;;;;;3.55;81.69;96376.97;1771642;81;21015;-67
2021/10/30 07:13:12;;;;;;;16.10;9.33;;;;;;;3.66;81.43;96379.39;1773584;80;21070;-68
2021/10/30 07:15:38;;;;;;;22.80;12.33;;;;;;;3.76;81.39;96368.72;1774053;81;21544;-67
2021/10/30 07:18:05;;;;;;;22.60;13.93;;;;;;;3.87;81.31;96369.36;1769507;80;21081;-67
2021/10/30 07:20:31;;;;;;;22.67;13.43;;;;;;;4.03;81.25;96369.66;1776002;81;21153;-67
2021/10/30 07:22:58;;;;;;;19.00;11.70;;;;;;;4.22;81.49;96373.08;1776949;80;21010;-68
2021/10/30 07:25:25;;;;;;;22.77;12.50;;;;;;;4.38;81.04;96367.70;1766566;80;21043;-67
2021/10/30 07:27:52;;;;;;;18.53;12.10;;;;;;;4.52;80.95;96362.30;1771916;81;21534;-67
2021/10/30 07:30:20;;;;;;;28.83;15.77;;;;;;;4.69;81.02;96365.20;1769914;80;21148;-65
2021/10/30 07:32:51;;;;;;;35.83;21.10;;;;;;;4.87;81.13;96362.44;1776126;80;21018;-65
2021/10/30 07:35:15;;;;;;;111.53;51.13;;;;;;;5.08;80.92;96360.13;1771748;80;21622;-69
2021/10/30 07:37:42;;;;;;;24.90;13.50;;;;;;;5.32;80.45;96358.75;1766518;81;21010;-68
2021/10/30 07:40:11;;;;;;;44.90;22.93;;;;;;;5.57;80.25;96350.80;1769073;80;21071;-68
2021/10/30 07:42:38;;;;;;;172.97;91.63;;;;;;;5.84;79.67;96352.86;1774606;81;21494;-68
2021/10/30 07:45:06;;;;;;;167.30;90.03;;;;;;;6.13;78.38;96347.12;1774499;80;20995;-67
2021/10/30 07:47:33;;;;;;;38.60;20.63;;;;;;;6.43;78.19;96340.00;1772979;80;21022;-68
2021/10/30 07:50:00;;;;;;;40.33;24.27;;;;;;;6.69;75.44;96342.84;1765836;79;21011;-67
2021/10/30 07:52:27;;;;;;;56.77;34.10;;;;;;;6.86;75.35;96334.69;1769996;80;21519;-68
2021/10/30 07:54:54;;;;;;;19.23;12.60;;;;;;;7.14;74.47;96337.06;1764871;80;21001;-68
2021/10/30 07:57:20;;;;;;;14.90;10.20;;;;;;;7.37;75.32;96339.83;1776080;81;21086;-68
2021/10/30 07:59:50;;;;;;;14.57;9.53;;;;;;;7.59;74.54;96334.70;1778532;81;21525;-68
2021/10/30 08:02:16;;;;;;;17.53;9.90;;;;;;;7.82;73.84;96332.17;1772386;80;21503;-68
2021/10/30 08:04:42;;;;;;;15.83;9.10;;;;;;;8.05;73.58;96328.31;1769075;80;21006;-67
2021/10/30 08:07:09;;;;;;;19.57;10.47;;;;;;;8.26;73.10;96320.03;1769347;80;21015;-67
2021/10/30 08:09:36;;;;;;;66.53;32.80;;;;;;;8.48;72.01;96318.36;1770899;80;20975;-66
2021/10/30 08:12:04;;;;;;;29.27;16.97;;;;;;;8.68;71.25;96311.80;1775459;81;21563;-68
2021/10/30 08:14:30;;;;;;;16.23;9.40;;;;;;;8.87;70.82;96310.48;1776771;81;21082;-66
2021/10/30 08:16:56;;;;;;;32.47;17.23;;;;;;;9.04;68.86;96308.27;1778744;80;21548;-67
2021/10/30 08:19:23;;;;;;;49.93;30.10;;;;;;;9.19;68.68;96302.10;1765127;80;21013;-68
2021/10/30 08:21:49;;;;;;;18.40;13.57;;;;;;;9.37;67.79;96303.81;1774161;81;21056;-68
2021/10/30 08:24:16;;;;;;;13.37;9.23;;;;;;;9.53;66.29;96303.77;1765252;81;21518;-68
2021/10/30 08:26:43;;;;;;;13.33;8.43;;;;;;;9.68;65.02;96300.22;1771734;80;20995;-68
2021/10/30 08:29:10;;;;;;;12.80;8.27;;;;;;;9.84;65.57;96298.83;1777549;81;21000;-68
2021/10/30 08:31:37;;;;;;;16.37;7.73;;;;;;;9.95;63.95;96301.86;1776497;80;21085;-68
2021/10/30 08:34:04;;;;;;;18.17;11.33;;;;;;;10.09;65.23;96299.59;1774899;81;21108;-68
2021/10/30 08:36:32;;;;;;;16.33;11.10;;;;;;;10.23;63.06;96299.49;1764383;80;21243;-68
2021/10/30 08:39:00;;;;;;;13.87;8.83;;;;;;;10.35;61.54;96296.81;1770140;81;21552;-68
2021/10/30 08:41:27;;;;;;;14.07;8.43;;;;;;;10.47;62.32;96294.10;1770111;80;21587;-68
2021/10/30 08:43:54;;;;;;;13.60;8.20;;;;;;;10.57;61.14;96294.47;1773838;81;21049;-67
2021/10/30 08:46:20;;;;;;;12.57;7.63;;;;;;;10.72;61.46;96286.88;1769303;80;21031;-68
2021/10/30 08:48:47;;;;;;;11.23;6.93;;;;;;;10.87;61.13;96285.88;1774248;80;21007;-67
2021/10/30 08:51:15;;;;;;;12.30;7.83;;;;;;;10.96;58.83;96290.19;1764110;80;21048;-67
2021/10/30 08:53:41;;;;;;;14.23;7.97;;;;;;;11.09;59.93;96296.23;1770789;80;21564;-67
2021/10/30 08:56:09;;;;;;;11.93;8.77;;;;;;;11.22;60.40;96296.11;1768571;80;21083;-67
2021/10/30 08:58:36;;;;;;;15.93;8.83;;;;;;;11.35;56.76;96296.86;1770142;80;21093;-68
2021/10/30 09:01:09;;;;;;;16.23;8.50;;;;;;;11.45;57.05;96293.68;1764097;80;21030;-67
2021/10/30 09:03:38;;;;;;;12.73;6.83;;;;;;;11.56;57.93;96294.88;1768930;80;21098;-68
2021/10/30 09:06:06;;;;;;;12.70;7.40;;;;;;;11.68;57.53;96296.93;1776130;80;21098;-68
2021/10/30 09:08:34;;;;;;;13.00;7.80;;;;;;;11.82;58.05;96290.17;1765159;80;21519;-67
2021/10/30 09:11:09;;;;;;;13.17;7.87;;;;;;;11.95;56.63;96288.73;1771210;80;21031;-68
2021/10/30 09:13:37;;;;;;;12.67;7.77;;;;;;;12.04;57.02;96286.81;1768369;80;21559;-68
2021/10/30 09:16:06;;;;;;;27.43;19.03;;;;;;;12.08;53.95;96289.86;1764672;80;21005;-68
2021/10/30 09:18:38;;;;;;;15.83;9.33;;;;;;;12.12;55.01;96286.74;1777816;80;21010;-68
2021/10/30 09:21:15;;;;;;;13.27;7.93;;;;;;;12.23;56.00;96286.59;1774293;80;21655;-68
2021/10/30 09:23:52;;;;;;;12.33;7.70;;;;;;;12.36;56.37;96280.22;1775471;81;21133;-68
2021/10/30 09:26:29;;;;;;;14.80;7.23;;;;;;;12.50;55.86;96281.35;1771750;80;21045;-66
2021/10/30 09:29:08;;;;;;;14.53;7.43;;;;;;;12.67;55.77;96276.64;1765977;80;21023;-68
2021/10/30 09:31:35;;;;;;;14.37;8.27;;;;;;;12.77;53.10;96283.57;1765793;80;21577;-68
2021/10/30 09:34:05;;;;;;;12.37;7.63;;;;;;;12.83;53.48;96279.07;1776835;81;21017;-67
2021/10/30 09:36:39;;;;;;;14.93;8.17;;;;;;;12.81;52.11;96277.76;1775351;80;21019;-68
2021/10/30 09:39:10;;;;;;;11.75;8.18;;;;;;;12.86;52.11;96268.42;1768876;80;20993;-68
2021/10/30 09:41:44;;;;;;;11.73;7.27;;;;;;;12.90;52.42;96271.42;1771018;81;21038;-68
2021/10/30 09:44:20;;;;;;;13.00;7.37;;;;;;;13.03;53.03;96265.46;1774177;81;20987;-68
2021/10/30 09:46:57;;;;;;;15.63;10.23;;;;;;;13.19;53.29;96255.03;1775785;80;21015;-67
2021/10/30 09:49:26;;;;;;;20.20;14.98;;;;;;;13.38;51.57;96258.23;1777334;80;21639;-68
2021/10/30 09:52:12;;;;;;;11.70;9.08;;;;;;;13.48;50.20;96257.18;1775431;80;21552;-68
2021/10/30 09:54:46;;;;;;;10.08;6.80;;;;;;;13.56;49.53;96265.84;1774018;80;21493;-68
2021/10/30 09:57:18;;;;;;;11.38;7.65;;;;;;;13.72;50.62;96262.43;1769204;80;20991;-69
2021/10/30 09:59:45;;;;;;;10.15;6.72;;;;;;;13.91;50.22;96258.06;1771426;81;21082;-68
2021/10/30 10:02:13;;;;;;;11.75;7.00;;;;;;;14.17;47.66;96249.09;1764323;80;21013;-69
2021/10/30 10:04:42;;;;;;;9.80;6.78;;;;;;;14.48;47.33;96247.06;1771774;81;21018;-69
2021/10/30 10:07:10;;;;;;;10.68;7.15;;;;;;;14.92;45.20;96242.51;1773925;80;21006;-67
2021/10/30 10:09:38;;;;;;;17.77;12.68;;;;;;;15.25;43.93;96243.87;1765953;80;21034;-69
2021/10/30 10:12:06;;;;;;;9.15;7.22;;;;;;;15.75;45.81;96237.66;1769303;80;20981;-67
2021/10/30 10:14:35;;;;;;;13.88;7.72;;;;;;;16.14;44.41;96230.73;1772608;80;21013;-67
2021/10/30 10:17:02;;;;;;;10.25;7.53;;;;;;;16.57;43.12;96239.58;1776673;81;21128;-67
2021/10/30 10:19:28;;;;;;;12.50;6.97;;;;;;;17.09;43.33;96233.91;1778908;81;21500;-68
2021/10/30 10:21:55;;;;;;;10.32;6.83;;;;;;;17.37;39.39;96237.42;1770825;80;21017;-67
2021/10/30 10:24:35;;;;;;;9.65;7.58;;;;;;;17.75;40.70;96228.04;1766558;80;21003;-67
2021/10/30 10:27:05;;;;;;;10.13;7.62;;;;;;;18.12;39.18;96227.57;1769426;80;21487;-68
2021/10/30 10:29:36;;;;;;;8.23;6.42;;;;;;;18.59;40.68;96223.48;1772156;80;22091;-68
2021/10/30 10:32:11;;;;;;;8.73;6.47;;;;;;;18.83;37.54;96223.94;1769447;80;21101;-68
2021/10/30 10:34:41;;;;;;;10.98;7.25;;;;;;;19.07;36.84;96216.20;1772906;80;21078;-68
2021/10/30 10:37:20;;;;;;;8.53;6.42;;;;;;;19.33;35.02;96220.94;1775922;81;21702;-68
2021/10/30 10:39:58;;;;;;;10.15;7.50;;;;;;;19.51;34.84;96208.09;1767441;80;21037;-69
2021/10/30 10:42:41;;;;;;;10.50;7.75;;;;;;;19.66;34.56;96211.42;1769369;80;21105;-68
2021/10/30 10:45:15;;;;;;;11.57;6.40;;;;;;;19.89;35.18;96211.75;1767405;80;21527;-68
2021/10/30 10:47:49;;;;;;;11.03;6.22;;;;;;;20.27;34.44;96209.58;1776158;80;21086;-69
2021/10/30 10:50:35;;;;;;;10.38;6.22;;;;;;;20.49;32.77;96204.08;1773275;81;21052;-69
2021/10/30 10:53:14;;;;;;;9.55;6.40;;;;;;;20.65;31.27;96205.56;1764808;80;20998;-69
2021/10/30 10:55:40;;;;;;;14.03;6.85;;;;;;;20.83;31.71;96201.97;1768181;80;21020;-68
2021/10/30 10:58:10;;;;;;;10.30;6.70;;;;;;;21.23;31.90;96208.02;1759827;80;21591;-66
2021/10/30 11:00:37;;;;;;;12.80;6.55;;;;;;;21.46;31.96;96193.45;1774246;80;21028;-68
2021/10/30 11:03:04;;;;;;;13.18;6.92;;;;;;;21.47;31.13;96192.96;1767862;80;21026;-67
2021/10/30 11:05:36;;;;;;;10.65;6.58;;;;;;;21.67;31.12;96190.58;1776653;80;21019;-68
2021/10/30 11:08:14;;;;;;;11.12;7.05;;;;;;;21.29;28.86;96188.94;1771738;80;20997;-68
2021/10/30 11:10:45;;;;;;;11.60;7.58;;;;;;;21.63;30.97;96196.59;1769795;80;21547;-68
2021/10/30 11:13:17;;;;;;;9.30;7.62;;;;;;;21.77;30.91;96199.43;1777355;81;21070;-68
2021/10/30 11:15:53;;;;;;;9.50;7.87;;;;;;;22.02;29.46;96192.27;1771193;80;21498;-69
2021/10/30 11:18:31;;;;;;;8.15;6.47;;;;;;;22.36;30.30;96197.63;1771604;80;20978;-69
2021/10/30 11:21:22;;;;;;;8.80;7.55;;;;;;;22.41;30.04;96190.17;1747095;80;21038;-68
2021/10/30 11:23:54;;;;;;;10.40;7.58;;;;;;;22.62;30.14;96190.28;1770861;80;21088;-69
2021/10/30 11:26:33;;;;;;;9.65;7.20;;;;;;;22.58;29.22;96190.54;1773308;80;21558;-68
2021/10/30 11:29:14;;;;;;;10.45;7.58;;;;;;;22.32;28.75;96183.95;1775508;81;21565;-68
2021/10/30 11:31:42;;;;;;;11.28;7.58;;;;;;;22.50;29.97;96186.94;1768281;80;21045;-69
2021/10/30 11:34:13;;;;;;;10.13;7.28;;;;;;;22.32;28.77;96187.50;1776288;81;21577;-69
2021/10/30 11:36:42;;;;;;;9.85;7.87;;;;;;;22.61;30.16;96187.22;1770646;80;21015;-68
2021/10/30 11:39:12;;;;;;;9.55;8.55;;;;;;;23.05;29.80;96189.66;1771074;80;21024;-68